Time;durP1;ratioP1;P1;durP2;ratioP2;P2;SDS_P1;SDS_P2;PMS_P1;PMS_P2;Temp;Humidity;BMP_temperature;BMP_pressure;BME280_temperature;BME280_humidity;BME280_pressure;Samples;Min_cycle;Max_cycle;Signal;HPM_P1;HPM_P2
2022/12/17 13:08:07;;;;;;;25.10;12.05;;;;;;;;;;4990238;28;20027;-53
2022/12/17 13:10:35;;;;;;;24.90;12.63;;;;;;;;;;4991394;28;20384;-54
2022/12/17 13:13:34;;;;;;;24.30;12.85;;;;;;;;;;4991906;28;20042;-55
2022/12/17 13:16:34;;;;;;;25.52;12.80;;;;;;;;;;4984616;28;20042;-56
2022/12/17 13:19:20;;;;;;;25.85;12.85;;;;;;;;;;4937147;28;20035;-57
2022/12/17 13:21:45;;;;;;;26.85;12.77;;;;;;;;;;4988703;28;20259;-55
2022/12/17 13:24:21;;;;;;;25.75;13.50;;;;;;;;;;5016536;28;20474;-59
2022/12/17 13:26:47;;;;;;;27.25;13.63;;;;;;;;;;5052711;28;20098;-55
2022/12/17 13:29:31;;;;;;;27.25;13.55;;;;;;;;;;5053574;28;20029;-56
2022/12/17 13:31:59;;;;;;;23.52;12.90;;;;;;;;;;5053492;28;20504;-54
2022/12/17 13:34:33;;;;;;;24.88;12.68;;;;;;;;;;5052088;28;20033;-56
2022/12/17 13:37:11;;;;;;;25.60;13.02;;;;;;;;;;5053253;28;20434;-52
2022/12/17 13:39:39;;;;;;;25.98;13.55;;;;;;;;;;5049992;28;20086;-56
2022/12/17 13:42:04;;;;;;;27.70;13.88;;;;;;;;;;5053209;28;20029;-55
2022/12/17 13:44:43;;;;;;;32.08;14.73;;;;;;;;;;5052284;28;20040;-59
2022/12/17 13:47:21;;;;;;;27.95;13.43;;;;;;;;;;5053150;28;20028;-56
2022/12/17 13:49:52;;;;;;;31.70;13.73;;;;;;;;;;5051608;28;20037;-61
2022/12/17 13:52:20;;;;;;;26.33;13.43;;;;;;;;;;5067600;28;20032;-54
2022/12/17 13:54:46;;;;;;;27.85;13.35;;;;;;;;;;5052049;28;20098;-56
2022/12/17 13:57:17;;;;;;;25.48;13.75;;;;;;;;;;5052374;28;20057;-53
2022/12/17 13:59:54;;;;;;;27.73;14.45;;;;;;;;;;5052104;28;20029;-56
2022/12/17 14:02:26;;;;;;;24.23;13.48;;;;;;;;;;5036262;28;20030;-57
2022/12/17 14:04:56;;;;;;;25.52;13.75;;;;;;;;;;5033469;28;20108;-56
2022/12/17 14:07:23;;;;;;;27.67;14.07;;;;;;;;;;5052013;28;20075;-56
2022/12/17 14:09:48;;;;;;;28.40;14.45;;;;;;;;;;5050556;28;20112;-52
2022/12/17 14:12:22;;;;;;;28.40;14.43;;;;;;;;;;5052439;28;20117;-51
2022/12/17 14:14:59;;;;;;;29.30;14.75;;;;;;;;;;5050330;28;20394;-56
2022/12/17 14:17:28;;;;;;;28.60;13.98;;;;;;;;;;5052561;28;20187;-55
2022/12/17 14:20:00;;;;;;;26.15;13.95;;;;;;;;;;5050950;28;20170;-57
2022/12/17 14:22:36;;;;;;;28.90;13.95;;;;;;;;;;5051135;28;20037;-56
2022/12/17 14:25:04;;;;;;;24.85;13.65;;;;;;;;;;5046376;28;20037;-56
2022/12/17 14:27:34;;;;;;;27.40;13.98;;;;;;;;;;5048974;28;20051;-59
2022/12/17 14:30:00;;;;;;;25.75;13.63;;;;;;;;;;5032408;28;20108;-56
2022/12/17 14:32:34;;;;;;;24.67;13.55;;;;;;;;;;5041018;28;20033;-56
2022/12/17 14:34:59;;;;;;;26.42;14.40;;;;;;;;;;5050703;28;20029;-54
2022/12/17 14:37:26;;;;;;;29.63;14.10;;;;;;;;;;5057306;28;20027;-56
2022/12/17 14:39:57;;;;;;;26.83;14.32;;;;;;;;;;5048717;28;20032;-56
2022/12/17 14:42:24;;;;;;;28.58;15.25;;;;;;;;;;5051092;28;20033;-56
2022/12/17 14:44:52;;;;;;;27.67;13.98;;;;;;;;;;5049805;28;20033;-57
2022/12/17 14:47:23;;;;;;;31.42;15.32;;;;;;;;;;5049860;28;20032;-57
2022/12/17 14:50:03;;;;;;;33.97;15.73;;;;;;;;;;5049378;28;20775;-57
2022/12/17 14:52:39;;;;;;;31.73;15.68;;;;;;;;;;5047625;28;20393;-57
2022/12/17 14:55:33;;;;;;;30.02;15.40;;;;;;;;;;5038645;28;20079;-60
2022/12/17 14:58:11;;;;;;;32.45;15.10;;;;;;;;;;5050976;28;20037;-58
2022/12/17 15:00:46;;;;;;;29.08;14.88;;;;;;;;;;5050005;28;20044;-60
2022/12/17 15:03:24;;;;;;;30.85;15.57;;;;;;;;;;5050477;28;20424;-59
2022/12/17 15:05:57;;;;;;;28.20;14.13;;;;;;;;;;5048883;28;20025;-58
2022/12/17 15:08:23;;;;;;;32.13;16.25;;;;;;;;;;5050979;28;20123;-55
2022/12/17 15:10:48;;;;;;;33.50;15.65;;;;;;;;;;5049924;28;20060;-56
2022/12/17 15:13:14;;;;;;;31.67;16.40;;;;;;;;;;5050902;28;20029;-57
2022/12/17 15:15:39;;;;;;;37.10;16.25;;;;;;;;;;5047782;28;20033;-53
2022/12/17 15:18:05;;;;;;;34.47;15.63;;;;;;;;;;5049395;28;20041;-56
2022/12/17 15:20:30;;;;;;;40.05;15.65;;;;;;;;;;5049902;28;20063;-59
2022/12/17 15:22:56;;;;;;;32.90;15.55;;;;;;;;;;5048632;28;20025;-56
2022/12/17 15:25:21;;;;;;;30.63;14.90;;;;;;;;;;5033491;28;20108;-58
2022/12/17 15:27:47;;;;;;;33.92;15.85;;;;;;;;;;5048466;28;20033;-54
2022/12/17 15:30:17;;;;;;;38.08;16.23;;;;;;;;;;5046465;28;20028;-55
2022/12/17 15:32:43;;;;;;;32.92;15.25;;;;;;;;;;5049840;28;20120;-58
2022/12/17 15:35:11;;;;;;;37.75;16.92;;;;;;;;;;5048620;28;20064;-54
2022/12/17 15:37:36;;;;;;;36.85;16.33;;;;;;;;;;5047949;28;20385;-60
2022/12/17 15:40:03;;;;;;;36.90;16.33;;;;;;;;;;5060411;28;20087;-55
2022/12/17 15:45:13;;;;;;;35.03;16.45;;;;;;;;;;5051103;28;20508;-52
2022/12/17 15:47:38;;;;;;;36.80;15.65;;;;;;;;;;5042423;28;20025;-54
2022/12/17 15:50:04;;;;;;;39.90;17.40;;;;;;;;;;5029737;28;20474;-54
2022/12/17 15:52:29;;;;;;;37.70;17.20;;;;;;;;;;5032326;28;20056;-55
2022/12/17 15:54:55;;;;;;;40.13;17.13;;;;;;;;;;5050179;28;20032;-53
2022/12/17 15:57:20;;;;;;;38.67;17.40;;;;;;;;;;5051511;28;20044;-57
2022/12/17 15:59:46;;;;;;;42.22;16.75;;;;;;;;;;5051244;28;20029;-54
2022/12/17 16:02:11;;;;;;;45.80;17.85;;;;;;;;;;5048872;28;20458;-56
2022/12/17 16:04:37;;;;;;;47.50;19.17;;;;;;;;;;5046569;28;20037;-58
2022/12/17 16:07:03;;;;;;;39.20;18.35;;;;;;;;;;5053017;28;20353;-54
2022/12/17 16:09:29;;;;;;;36.40;16.92;;;;;;;;;;5054762;28;20391;-56
2022/12/17 16:11:55;;;;;;;40.45;18.77;;;;;;;;;;5050533;28;20036;-54
2022/12/17 16:14:22;;;;;;;41.72;19.05;;;;;;;;;;5050066;28;20036;-59
2022/12/17 16:16:48;;;;;;;37.33;18.88;;;;;;;;;;5052597;28;20039;-56
2022/12/17 16:19:13;;;;;;;45.25;19.50;;;;;;;;;;5048105;28;20033;-59
2022/12/17 16:21:39;;;;;;;43.67;18.98;;;;;;;;;;5051106;28;20098;-58
2022/12/17 16:24:05;;;;;;;43.78;19.13;;;;;;;;;;5054076;28;20040;-56
2022/12/17 16:26:30;;;;;;;43.22;19.45;;;;;;;;;;5053575;28;20036;-56
2022/12/17 16:28:58;;;;;;;44.05;19.77;;;;;;;;;;5052879;28;20124;-56
2022/12/17 16:31:24;;;;;;;41.08;18.20;;;;;;;;;;5041553;28;20091;-56
2022/12/17 16:33:50;;;;;;;49.10;21.80;;;;;;;;;;5046872;28;20127;-55
2022/12/17 16:36:18;;;;;;;53.85;23.50;;;;;;;;;;5046225;28;20390;-53
2022/12/17 16:38:52;;;;;;;49.28;20.42;;;;;;;;;;5049493;28;20032;-57
2022/12/17 16:41:19;;;;;;;40.85;19.40;;;;;;;;;;5052187;28;20371;-54
2022/12/17 16:43:45;;;;;;;44.88;18.70;;;;;;;;;;5052123;28;20040;-57
2022/12/17 16:46:35;;;;;;;48.05;20.25;;;;;;;;;;5051870;28;20133;-55
2022/12/17 16:49:21;;;;;;;42.67;18.13;;;;;;;;;;5046332;28;20102;-55
2022/12/17 16:51:49;;;;;;;41.70;17.27;;;;;;;;;;5047645;28;20103;-55
2022/12/17 16:54:17;;;;;;;43.13;18.27;;;;;;;;;;5052072;28;20125;-54
2022/12/17 16:56:43;;;;;;;53.67;22.85;;;;;;;;;;5036337;28;20041;-57
2022/12/17 16:59:10;;;;;;;55.35;23.67;;;;;;;;;;5041813;28;20541;-56
2022/12/17 17:01:37;;;;;;;62.58;26.27;;;;;;;;;;5046676;28;20485;-56
2022/12/17 17:04:04;;;;;;;61.58;24.77;;;;;;;;;;5037904;28;20128;-56
2022/12/17 17:06:30;;;;;;;61.97;25.17;;;;;;;;;;5045504;28;20531;-58
2022/12/17 17:08:55;;;;;;;60.92;25.85;;;;;;;;;;5050512;28;20041;-56
2022/12/17 17:11:23;;;;;;;65.78;26.83;;;;;;;;;;5052657;28;20485;-55
2022/12/17 17:13:53;;;;;;;61.17;25.55;;;;;;;;;;5040953;28;20035;-57
2022/12/17 17:16:20;;;;;;;67.50;24.20;;;;;;;;;;5041408;28;20047;-57
2022/12/17 17:18:46;;;;;;;64.35;24.60;;;;;;;;;;5047895;28;20029;-52
2022/12/17 17:21:36;;;;;;;67.90;26.27;;;;;;;;;;5049177;28;21264;-57
2022/12/17 17:24:14;;;;;;;66.75;26.52;;;;;;;;;;5037185;28;20033;-57
2022/12/17 17:26:40;;;;;;;67.28;26.17;;;;;;;;;;5042049;28;20030;-60
2022/12/17 17:29:06;;;;;;;63.78;24.77;;;;;;;;;;5040143;28;20032;-57
2022/12/17 17:31:32;;;;;;;65.85;25.70;;;;;;;;;;5044449;28;20033;-54
2022/12/17 17:33:57;;;;;;;71.00;26.95;;;;;;;;;;5040640;28;20038;-53
2022/12/17 17:36:30;;;;;;;69.32;26.60;;;;;;;;;;5043058;28;20079;-53
2022/12/17 17:39:00;;;;;;;68.57;27.05;;;;;;;;;;5045242;28;20037;-56
2022/12/17 17:41:27;;;;;;;61.75;26.70;;;;;;;;;;5052966;28;20062;-54
2022/12/17 17:44:00;;;;;;;63.92;24.17;;;;;;;;;;5051169;28;20068;-54
2022/12/17 17:46:27;;;;;;;63.08;24.77;;;;;;;;;;5011282;28;20237;-55
2022/12/17 17:48:56;;;;;;;62.78;24.60;;;;;;;;;;5050246;28;20079;-57
2022/12/17 17:51:29;;;;;;;58.58;24.65;;;;;;;;;;5041168;28;20033;-55
2022/12/17 17:53:55;;;;;;;63.95;25.90;;;;;;;;;;5055944;28;20454;-54
2022/12/17 17:56:24;;;;;;;63.47;26.15;;;;;;;;;;5049851;28;20055;-54
2022/12/17 17:58:52;;;;;;;58.50;25.88;;;;;;;;;;5051987;28;20082;-55
2022/12/17 18:01:27;;;;;;;59.58;24.35;;;;;;;;;;5051899;28;20040;-56
2022/12/17 18:03:55;;;;;;;58.97;24.00;;;;;;;;;;5059568;28;20111;-53
2022/12/17 18:06:21;;;;;;;54.40;23.58;;;;;;;;;;5066773;28;20180;-52
2022/12/17 18:08:47;;;;;;;62.78;24.60;;;;;;;;;;5047018;28;20025;-54
2022/12/17 18:11:16;;;;;;;51.95;23.25;;;;;;;;;;5033935;28;20029;-52
2022/12/17 18:13:54;;;;;;;73.35;28.20;;;;;;;;;;5041799;28;20140;-58
2022/12/17 18:16:37;;;;;;;72.35;27.70;;;;;;;;;;5048793;28;20033;-51
2022/12/17 18:19:06;;;;;;;62.15;25.60;;;;;;;;;;5050270;28;20033;-54
2022/12/17 18:21:32;;;;;;;68.40;26.23;;;;;;;;;;5052789;28;20029;-54
2022/12/17 18:24:03;;;;;;;58.95;24.95;;;;;;;;;;5051364;28;20497;-52
2022/12/17 18:26:32;;;;;;;55.92;24.38;;;;;;;;;;5051136;28;20041;-52
2022/12/17 18:29:01;;;;;;;61.70;23.00;;;;;;;;;;5049654;28;20037;-54
2022/12/17 18:31:28;;;;;;;60.65;24.98;;;;;;;;;;5050752;28;20461;-54
2022/12/17 18:34:02;;;;;;;65.50;24.23;;;;;;;;;;5049878;28;20045;-53
2022/12/17 18:36:34;;;;;;;64.00;24.80;;;;;;;;;;5042979;28;20033;-55
2022/12/17 18:39:03;;;;;;;68.65;26.20;;;;;;;;;;5050991;28;20029;-55
2022/12/17 18:44:13;;;;;;;59.28;24.65;;;;;;;;;;5051200;28;20045;-58
2022/12/17 18:46:39;;;;;;;64.97;25.48;;;;;;;;;;5047574;28;20029;-54
2022/12/17 18:49:08;;;;;;;55.97;23.80;;;;;;;;;;5030832;28;20105;-54
2022/12/17 18:51:35;;;;;;;60.63;23.67;;;;;;;;;;5043644;28;20507;-56
2022/12/17 18:54:03;;;;;;;62.40;24.30;;;;;;;;;;5050799;28;20025;-53
2022/12/17 18:56:29;;;;;;;82.95;28.35;;;;;;;;;;5049739;28;20110;-56
2022/12/17 18:58:55;;;;;;;78.50;29.13;;;;;;;;;;5049611;28;20446;-54
2022/12/17 19:01:25;;;;;;;72.75;28.13;;;;;;;;;;5048653;28;20025;-55
2022/12/17 19:03:51;;;;;;;67.05;25.70;;;;;;;;;;5047968;28;20037;-60
2022/12/17 19:06:18;;;;;;;59.20;25.67;;;;;;;;;;5049518;28;20094;-55
2022/12/17 19:08:44;;;;;;;67.65;25.85;;;;;;;;;;5051622;28;20079;-57
2022/12/17 19:11:10;;;;;;;70.40;25.48;;;;;;;;;;5049643;28;20037;-52
2022/12/17 19:13:36;;;;;;;73.68;27.17;;;;;;;;;;5051521;28;20112;-54
2022/12/17 19:16:20;;;;;;;72.88;26.27;;;;;;;;;;5048200;28;20167;-54
2022/12/17 19:18:56;;;;;;;71.25;24.23;;;;;;;;;;5050484;28;20136;-59
2022/12/17 19:21:23;;;;;;;69.55;25.40;;;;;;;;;;5048132;28;20025;-57
2022/12/17 19:23:49;;;;;;;71.20;26.08;;;;;;;;;;5049286;28;20025;-56
2022/12/17 19:26:17;;;;;;;66.10;25.13;;;;;;;;;;5051517;28;20037;-53
2022/12/17 19:28:44;;;;;;;76.93;29.33;;;;;;;;;;5045678;28;20033;-55
2022/12/17 19:31:10;;;;;;;75.55;30.25;;;;;;;;;;5050060;28;20477;-56
2022/12/17 19:33:36;;;;;;;72.85;30.73;;;;;;;;;;5051272;28;20025;-57
2022/12/17 19:36:08;;;;;;;84.22;29.17;;;;;;;;;;5044937;28;20041;-55
2022/12/17 19:38:34;;;;;;;72.10;25.92;;;;;;;;;;5041741;28;20036;-56
2022/12/17 19:41:08;;;;;;;66.65;25.30;;;;;;;;;;5050581;28;20033;-56
2022/12/17 19:43:34;;;;;;;72.50;25.80;;;;;;;;;;5049345;28;20108;-58
2022/12/17 19:46:04;;;;;;;72.50;26.27;;;;;;;;;;5050013;28;20545;-56
2022/12/17 19:48:31;;;;;;;76.83;27.93;;;;;;;;;;5049117;28;20037;-53
2022/12/17 19:50:57;;;;;;;111.07;37.80;;;;;;;;;;5035625;28;20029;-55
2022/12/17 19:53:25;;;;;;;77.75;30.05;;;;;;;;;;5049331;28;20175;-52
2022/12/17 19:55:52;;;;;;;76.80;27.02;;;;;;;;;;5046758;28;20041;-55
2022/12/17 19:58:17;;;;;;;68.20;25.08;;;;;;;;;;5050590;28;20033;-55
2022/12/17 20:00:43;;;;;;;74.93;27.58;;;;;;;;;;5048394;28;20051;-58
2022/12/17 20:03:08;;;;;;;73.78;26.85;;;;;;;;;;5050050;28;20059;-56
2022/12/17 20:05:34;;;;;;;86.85;32.65;;;;;;;;;;5049659;28;20035;-54
2022/12/17 20:07:59;;;;;;;76.03;28.40;;;;;;;;;;5044349;28;20025;-56
2022/12/17 20:10:24;;;;;;;79.85;29.20;;;;;;;;;;5051104;28;20056;-56
2022/12/17 20:12:50;;;;;;;93.05;30.65;;;;;;;;;;5047390;28;20032;-59
2022/12/17 20:15:15;;;;;;;80.80;28.30;;;;;;;;;;5048799;28;20032;-54
2022/12/17 20:17:41;;;;;;;79.03;28.02;;;;;;;;;;5050867;28;20060;-55
2022/12/17 20:20:07;;;;;;;81.57;29.00;;;;;;;;;;5060008;28;20893;-53
2022/12/17 20:22:32;;;;;;;75.22;26.23;;;;;;;;;;5049607;28;20025;-55
2022/12/17 20:25:00;;;;;;;85.75;27.23;;;;;;;;;;5047659;28;20033;-56
2022/12/17 20:27:25;;;;;;;76.30;26.60;;;;;;;;;;5049715;28;20029;-55
2022/12/17 20:29:52;;;;;;;70.95;26.15;;;;;;;;;;5047660;28;20036;-59
2022/12/17 20:32:19;;;;;;;79.85;27.00;;;;;;;;;;5049773;28;20367;-55
2022/12/17 20:34:45;;;;;;;69.10;26.83;;;;;;;;;;5049323;28;20456;-56
2022/12/17 20:37:10;;;;;;;79.40;28.77;;;;;;;;;;5049412;28;20045;-60
2022/12/17 20:39:36;;;;;;;70.85;26.80;;;;;;;;;;5050341;28;20021;-57
2022/12/17 20:42:01;;;;;;;61.33;24.65;;;;;;;;;;5050073;28;20072;-55
2022/12/17 20:44:27;;;;;;;62.70;24.55;;;;;;;;;;5052895;28;20098;-52
2022/12/17 20:46:53;;;;;;;77.13;28.27;;;;;;;;;;5050504;28;20055;-58
2022/12/17 20:49:18;;;;;;;82.03;27.10;;;;;;;;;;5051637;28;20454;-56
2022/12/17 20:51:44;;;;;;;73.78;26.63;;;;;;;;;;5054270;28;20025;-53
2022/12/17 20:54:09;;;;;;;84.80;29.42;;;;;;;;;;5051050;28;20043;-53
2022/12/17 20:56:35;;;;;;;95.55;35.63;;;;;;;;;;5052818;28;20049;-56
2022/12/17 20:59:04;;;;;;;84.15;32.72;;;;;;;;;;5050943;28;20020;-56
2022/12/17 21:01:32;;;;;;;79.80;30.05;;;;;;;;;;5054023;28;20032;-57
2022/12/17 21:03:58;;;;;;;78.10;26.83;;;;;;;;;;5034723;28;20389;-52
2022/12/17 21:06:50;;;;;;;74.70;25.40;;;;;;;;;;5051930;28;20064;-55
2022/12/17 21:09:18;;;;;;;81.05;26.17;;;;;;;;;;5046492;28;20052;-57
2022/12/17 21:11:44;;;;;;;71.35;24.67;;;;;;;;;;5053742;28;20098;-56
2022/12/17 21:14:12;;;;;;;66.20;25.30;;;;;;;;;;5049220;28;20037;-57
2022/12/17 21:16:39;;;;;;;65.55;24.80;;;;;;;;;;5052153;28;20029;-56
2022/12/17 21:19:05;;;;;;;72.72;25.83;;;;;;;;;;5049426;28;20033;-56
2022/12/17 21:21:34;;;;;;;68.30;25.38;;;;;;;;;;5052869;28;20515;-55
2022/12/17 21:24:00;;;;;;;62.72;25.85;;;;;;;;;;5047157;28;20087;-55
2022/12/17 21:26:31;;;;;;;65.03;25.02;;;;;;;;;;5053383;28;20033;-56
2022/12/17 21:28:58;;;;;;;60.40;24.45;;;;;;;;;;5049658;28;20120;-56
2022/12/17 21:31:44;;;;;;;72.82;24.60;;;;;;;;;;5061102;28;20029;-56
2022/12/17 21:34:13;;;;;;;72.28;24.35;;;;;;;;;;5054401;28;20033;-57
2022/12/17 21:36:39;;;;;;;75.75;25.98;;;;;;;;;;5068409;28;20482;-55
2022/12/17 21:39:06;;;;;;;82.47;28.02;;;;;;;;;;5050650;28;20079;-56
2022/12/17 21:41:34;;;;;;;68.45;24.48;;;;;;;;;;5053024;28;20532;-53
2022/12/17 21:44:01;;;;;;;58.85;22.83;;;;;;;;;;5051528;28;20473;-56
2022/12/17 21:46:27;;;;;;;62.92;23.30;;;;;;;;;;5053510;28;20048;-55
2022/12/17 21:48:54;;;;;;;64.70;24.77;;;;;;;;;;5060900;28;20462;-60
2022/12/17 21:51:20;;;;;;;67.13;25.08;;;;;;;;;;5047719;28;20175;-57
2022/12/17 21:53:46;;;;;;;64.10;25.02;;;;;;;;;;5050106;28;20090;-56
2022/12/17 21:56:15;;;;;;;66.05;23.92;;;;;;;;;;5051577;28;20071;-56
2022/12/17 21:58:42;;;;;;;67.45;24.05;;;;;;;;;;5051199;28;20569;-52
2022/12/17 22:01:13;;;;;;;61.92;23.05;;;;;;;;;;5052110;28;20061;-52
2022/12/17 22:03:39;;;;;;;50.40;20.17;;;;;;;;;;5052104;28;20040;-56
2022/12/17 22:06:10;;;;;;;53.13;21.73;;;;;;;;;;5051005;28;20037;-53
2022/12/17 22:08:36;;;;;;;60.88;23.80;;;;;;;;;;5051878;28;20116;-52
2022/12/17 22:11:02;;;;;;;60.95;22.67;;;;;;;;;;5051873;28;20078;-51
2022/12/17 22:16:41;;;;;;;52.67;21.65;;;;;;;;;;4990680;28;20038;-53
2022/12/17 22:19:12;;;;;;;57.58;22.52;;;;;;;;;;4988323;28;20439;-51
2022/12/17 22:21:40;;;;;;;57.90;22.02;;;;;;;;;;4989105;28;20111;-55
2022/12/17 22:24:10;;;;;;;51.78;22.23;;;;;;;;;;4989927;28;20066;-56
2022/12/17 22:26:35;;;;;;;51.97;20.48;;;;;;;;;;4989323;28;20491;-58
2022/12/17 22:29:02;;;;;;;65.10;22.88;;;;;;;;;;4987472;28;20034;-57
2022/12/17 22:34:12;;;;;;;53.33;21.30;;;;;;;;;;4986332;28;20053;-57
2022/12/17 22:36:38;;;;;;;49.25;20.40;;;;;;;;;;4990094;28;20038;-57
2022/12/17 22:39:06;;;;;;;50.53;19.92;;;;;;;;;;4987808;28;20098;-55
2022/12/17 22:44:16;;;;;;;49.35;19.63;;;;;;;;;;4998675;28;20176;-57
2022/12/17 22:46:41;;;;;;;45.67;20.23;;;;;;;;;;5005798;28;20473;-56
2022/12/17 22:49:07;;;;;;;47.10;20.77;;;;;;;;;;5042001;28;20518;-55
2022/12/17 22:51:33;;;;;;;53.72;22.35;;;;;;;;;;5032207;28;20040;-57
2022/12/17 22:54:03;;;;;;;55.67;19.95;;;;;;;;;;5035787;28;20100;-60
2022/12/17 22:56:29;;;;;;;51.10;20.20;;;;;;;;;;5049367;28;20076;-55
2022/12/17 22:58:55;;;;;;;48.03;19.90;;;;;;;;;;5051276;28;20068;-55
2022/12/17 23:01:21;;;;;;;51.42;19.58;;;;;;;;;;5046951;28;20036;-56
2022/12/17 23:03:46;;;;;;;54.38;19.83;;;;;;;;;;5050914;28;20037;-56
2022/12/17 23:06:14;;;;;;;43.15;19.05;;;;;;;;;;5028948;28;20032;-55
2022/12/17 23:08:40;;;;;;;46.53;19.90;;;;;;;;;;5048132;28;20028;-56
2022/12/17 23:11:08;;;;;;;43.38;18.48;;;;;;;;;;5046777;28;20076;-52
2022/12/17 23:13:34;;;;;;;45.58;18.63;;;;;;;;;;5045868;28;20392;-53
2022/12/17 23:16:00;;;;;;;49.88;19.75;;;;;;;;;;5047474;28;20021;-60
2022/12/17 23:18:25;;;;;;;50.35;20.02;;;;;;;;;;5048326;28;20037;-55
2022/12/17 23:20:52;;;;;;;50.80;20.63;;;;;;;;;;5051386;28;20032;-53
2022/12/17 23:23:17;;;;;;;50.00;20.48;;;;;;;;;;5048566;28;20033;-54
2022/12/17 23:25:43;;;;;;;52.53;20.02;;;;;;;;;;5046748;28;20048;-54
2022/12/17 23:28:08;;;;;;;49.65;20.13;;;;;;;;;;5048236;28;20497;-53
2022/12/17 23:30:35;;;;;;;50.67;21.13;;;;;;;;;;5049641;28;20028;-55
2022/12/17 23:33:01;;;;;;;50.80;20.88;;;;;;;;;;5048813;28;20485;-60
2022/12/17 23:35:26;;;;;;;55.70;23.25;;;;;;;;;;5049385;28;20028;-55
2022/12/17 23:37:52;;;;;;;61.55;23.67;;;;;;;;;;5047580;28;20025;-57
2022/12/17 23:40:18;;;;;;;52.20;20.55;;;;;;;;;;5047928;28;20097;-54
2022/12/17 23:42:43;;;;;;;53.42;21.38;;;;;;;;;;5048233;28;20021;-51
2022/12/17 23:45:10;;;;;;;45.67;19.88;;;;;;;;;;5047382;28;20037;-57
2022/12/17 23:47:36;;;;;;;49.53;20.80;;;;;;;;;;5049703;28;20591;-54
2022/12/17 23:50:01;;;;;;;51.05;20.25;;;;;;;;;;5048258;28;20029;-59
2022/12/17 23:52:27;;;;;;;49.75;21.08;;;;;;;;;;5049968;28;20040;-56
2022/12/17 23:54:52;;;;;;;50.67;19.70;;;;;;;;;;5051887;28;20029;-56
2022/12/17 23:57:18;;;;;;;45.85;19.77;;;;;;;;;;5050847;28;20049;-54
2022/12/17 23:59:44;;;;;;;49.30;20.95;;;;;;;;;;5050651;28;20025;-53
